sensor_id;sensor_type;location;lat;lon;timestamp;pressure;altitude;pressure_sealevel;temperature;humidity
23677;BME280;31493;49.058;12.190;2023-12-20T00:01:36;96012.84;;;1.37;100.00
23677;BME280;31493;49.058;12.190;2023-12-20T00:04:03;96020.25;;;1.22;100.00
23677;BME280;31493;49.058;12.190;2023-12-20T00:06:30;96028.69;;;1.47;100.00
23677;BME280;31493;49.058;12.190;2023-12-20T00:08:57;96025.16;;;1.26;100.00
23677;BME280;31493;49.058;12.190;2023-12-20T00:11:26;96034.41;;;1.54;100.00
23677;BME280;31493;49.058;12.190;2023-12-20T00:13:53;96019.63;;;1.38;100.00
23677;BME280;31493;49.058;12.190;2023-12-20T00:16:20;96016.28;;;1.60;100.00
23677;BME280;31493;49.058;12.190;2023-12-20T00:18:47;96002.22;;;1.48;100.00
23677;BME280;31493;49.058;12.190;2023-12-20T00:21:14;96017.63;;;1.47;100.00
23677;BME280;31493;49.058;12.190;2023-12-20T00:23:41;96016.47;;;1.77;100.00
23677;BME280;31493;49.058;12.190;2023-12-20T00:26:08;96005.28;;;1.58;100.00
23677;BME280;31493;49.058;12.190;2023-12-20T00:28:36;95995.53;;;1.46;100.00
23677;BME280;31493;49.058;12.190;2023-12-20T00:31:03;95995.31;;;1.52;100.00
23677;BME280;31493;49.058;12.190;2023-12-20T00:33:30;95987.97;;;1.42;100.00
23677;BME280;31493;49.058;12.190;2023-12-20T00:35:57;96002.34;;;1.45;100.00
23677;BME280;31493;49.058;12.190;2023-12-20T00:38:24;95993.56;;;1.52;100.00
23677;BME280;31493;49.058;12.190;2023-12-20T00:40:51;96005.53;;;1.52;100.00
23677;BME280;31493;49.058;12.190;2023-12-20T00:43:18;95994.03;;;1.62;100.00
23677;BME280;31493;49.058;12.190;2023-12-20T00:45:46;95995.00;;;1.59;100.00
23677;BME280;31493;49.058;12.190;2023-12-20T00:48:13;96000.56;;;1.71;100.00
23677;BME280;31493;49.058;12.190;2023-12-20T00:50:40;95998.53;;;1.79;100.00
23677;BME280;31493;49.058;12.190;2023-12-20T00:53:07;95983.59;;;1.68;100.00
23677;BME280;31493;49.058;12.190;2023-12-20T00:55:34;95992.25;;;1.64;100.00
23677;BME280;31493;49.058;12.190;2023-12-20T00:58:01;95994.16;;;1.59;100.00
23677;BME280;31493;49.058;12.190;2023-12-20T01:00:28;95995.59;;;1.66;100.00
23677;BME280;31493;49.058;12.190;2023-12-20T01:02:57;95981.25;;;1.62;100.00
23677;BME280;31493;49.058;12.190;2023-12-20T01:05:24;95982.53;;;1.74;100.00
23677;BME280;31493;49.058;12.190;2023-12-20T01:07:51;95994.72;;;1.67;100.00
23677;BME280;31493;49.058;12.190;2023-12-20T01:10:18;95985.69;;;1.58;100.00
23677;BME280;31493;49.058;12.190;2023-12-20T01:12:45;95975.63;;;1.76;100.00
23677;BME280;31493;49.058;12.190;2023-12-20T01:15:12;95994.63;;;1.68;100.00
23677;BME280;31493;49.058;12.190;2023-12-20T01:17:39;95989.75;;;1.62;100.00
23677;BME280;31493;49.058;12.190;2023-12-20T01:20:08;95996.59;;;1.62;100.00
23677;BME280;31493;49.058;12.190;2023-12-20T01:22:35;95996.13;;;1.52;100.00
23677;BME280;31493;49.058;12.190;2023-12-20T01:25:03;95995.06;;;1.58;100.00
23677;BME280;31493;49.058;12.190;2023-12-20T01:27:30;95989.28;;;1.53;100.00
23677;BME280;31493;49.058;12.190;2023-12-20T01:29:57;95991.25;;;1.68;100.00
23677;BME280;31493;49.058;12.190;2023-12-20T01:32:24;95988.22;;;1.58;100.00
23677;BME280;31493;49.058;12.190;2023-12-20T01:34:51;95987.44;;;1.56;100.00
23677;BME280;31493;49.058;12.190;2023-12-20T01:37:20;95980.09;;;1.71;100.00
23677;BME280;31493;49.058;12.190;2023-12-20T01:39:49;95973.72;;;1.59;100.00
23677;BME280;31493;49.058;12.190;2023-12-20T01:42:16;95962.78;;;1.55;100.00
23677;BME280;31493;49.058;12.190;2023-12-20T01:44:43;95967.94;;;1.54;100.00
23677;BME280;31493;49.058;12.190;2023-12-20T01:47:10;95966.59;;;1.67;100.00
23677;BME280;31493;49.058;12.190;2023-12-20T01:49:37;95948.88;;;1.62;100.00
23677;BME280;31493;49.058;12.190;2023-12-20T01:52:05;95957.38;;;1.63;100.00
23677;BME280;31493;49.058;12.190;2023-12-20T01:54:34;95958.75;;;1.72;100.00
23677;BME280;31493;49.058;12.190;2023-12-20T01:57:02;95963.50;;;1.59;100.00
23677;BME280;31493;49.058;12.190;2023-12-20T01:59:30;95960.75;;;1.63;100.00
23677;BME280;31493;49.058;12.190;2023-12-20T02:01:57;95946.31;;;1.62;100.00
23677;BME280;31493;49.058;12.190;2023-12-20T02:04:25;95955.78;;;1.60;100.00
23677;BME280;31493;49.058;12.190;2023-12-20T02:06:53;95954.19;;;1.58;100.00
23677;BME280;31493;49.058;12.190;2023-12-20T02:09:20;95955.78;;;1.60;100.00
23677;BME280;31493;49.058;12.190;2023-12-20T02:11:50;95953.09;;;1.63;100.00
23677;BME280;31493;49.058;12.190;2023-12-20T02:14:17;95946.59;;;1.55;100.00
23677;BME280;31493;49.058;12.190;2023-12-20T02:16:44;95949.16;;;1.55;100.00
23677;BME280;31493;49.058;12.190;2023-12-20T02:19:13;95952.16;;;1.66;100.00
23677;BME280;31493;49.058;12.190;2023-12-20T02:21:42;95941.13;;;1.64;100.00
23677;BME280;31493;49.058;12.190;2023-12-20T02:24:09;95931.69;;;1.66;100.00
23677;BME280;31493;49.058;12.190;2023-12-20T02:26:36;95925.28;;;1.78;100.00
23677;BME280;31493;49.058;12.190;2023-12-20T02:29:03;95915.88;;;1.78;100.00
23677;BME280;31493;49.058;12.190;2023-12-20T02:31:30;95913.91;;;1.85;100.00
23677;BME280;31493;49.058;12.190;2023-12-20T02:33:58;95918.97;;;1.86;100.00
23677;BME280;31493;49.058;12.190;2023-12-20T02:36:25;95918.84;;;1.89;100.00
23677;BME280;31493;49.058;12.190;2023-12-20T02:38:53;95913.84;;;1.86;100.00
23677;BME280;31493;49.058;12.190;2023-12-20T02:41:20;95908.72;;;1.86;100.00
23677;BME280;31493;49.058;12.190;2023-12-20T02:43:47;95913.25;;;2.02;100.00
23677;BME280;31493;49.058;12.190;2023-12-20T02:46:15;95911.34;;;1.85;100.00
23677;BME280;31493;49.058;12.190;2023-12-20T02:48:42;95925.31;;;1.98;100.00
23677;BME280;31493;49.058;12.190;2023-12-20T02:51:09;95919.03;;;2.05;100.00
23677;BME280;31493;49.058;12.190;2023-12-20T02:53:36;95926.97;;;1.99;100.00
23677;BME280;31493;49.058;12.190;2023-12-20T02:56:05;95913.69;;;2.11;100.00
23677;BME280;31493;49.058;12.190;2023-12-20T02:58:32;95912.75;;;2.14;100.00
23677;BME280;31493;49.058;12.190;2023-12-20T03:00:59;95907.88;;;2.28;100.00
23677;BME280;31493;49.058;12.190;2023-12-20T03:03:26;95914.53;;;2.32;100.00
23677;BME280;31493;49.058;12.190;2023-12-20T03:05:53;95921.25;;;2.35;100.00
23677;BME280;31493;49.058;12.190;2023-12-20T03:08:20;95911.25;;;2.49;100.00
23677;BME280;31493;49.058;12.190;2023-12-20T03:10:47;95914.03;;;2.44;100.00
23677;BME280;31493;49.058;12.190;2023-12-20T03:13:16;95907.69;;;2.33;100.00
23677;BME280;31493;49.058;12.190;2023-12-20T03:15:43;95905.38;;;2.27;100.00
23677;BME280;31493;49.058;12.190;2023-12-20T03:18:10;95901.34;;;2.41;100.00
23677;BME280;31493;49.058;12.190;2023-12-20T03:20:37;95903.66;;;2.27;100.00
23677;BME280;31493;49.058;12.190;2023-12-20T03:23:04;95891.69;;;2.28;100.00
23677;BME280;31493;49.058;12.190;2023-12-20T03:25:31;95894.69;;;2.37;100.00
23677;BME280;31493;49.058;12.190;2023-12-20T03:27:59;95898.09;;;2.38;100.00
23677;BME280;31493;49.058;12.190;2023-12-20T03:30:27;95903.19;;;2.58;100.00
23677;BME280;31493;49.058;12.190;2023-12-20T03:32:54;95904.09;;;2.57;100.00
23677;BME280;31493;49.058;12.190;2023-12-20T03:35:21;95901.38;;;2.60;100.00
23677;BME280;31493;49.058;12.190;2023-12-20T03:37:48;95897.44;;;2.53;100.00
23677;BME280;31493;49.058;12.190;2023-12-20T03:40:15;95896.78;;;2.68;100.00
23677;BME280;31493;49.058;12.190;2023-12-20T03:42:42;95898.34;;;2.52;100.00
23677;BME280;31493;49.058;12.190;2023-12-20T03:45:09;95906.16;;;2.68;100.00
23677;BME280;31493;49.058;12.190;2023-12-20T03:47:37;95908.81;;;2.66;100.00
23677;BME280;31493;49.058;12.190;2023-12-20T03:50:05;95904.50;;;2.67;100.00
23677;BME280;31493;49.058;12.190;2023-12-20T03:52:32;95903.38;;;2.54;100.00
23677;BME280;31493;49.058;12.190;2023-12-20T03:54:59;95905.97;;;2.72;100.00
23677;BME280;31493;49.058;12.190;2023-12-20T03:57:26;95912.69;;;2.56;100.00
23677;BME280;31493;49.058;12.190;2023-12-20T03:59:53;95904.50;;;2.67;100.00
23677;BME280;31493;49.058;12.190;2023-12-20T04:02:20;95898.25;;;2.54;100.00
23677;BME280;31493;49.058;12.190;2023-12-20T04:04:48;95900.75;;;2.55;100.00
23677;BME280;31493;49.058;12.190;2023-12-20T04:07:15;95910.13;;;2.56;100.00
23677;BME280;31493;49.058;12.190;2023-12-20T04:09:42;95912.41;;;2.62;100.00
23677;BME280;31493;49.058;12.190;2023-12-20T04:12:09;95925.41;;;2.58;100.00
23677;BME280;31493;49.058;12.190;2023-12-20T04:14:36;95919.00;;;2.47;100.00
23677;BME280;31493;49.058;12.190;2023-12-20T04:17:03;95908.75;;;2.47;100.00
23677;BME280;31493;49.058;12.190;2023-12-20T04:19:30;95919.81;;;2.48;100.00
23677;BME280;31493;49.058;12.190;2023-12-20T04:21:58;95923.09;;;2.52;100.00
23677;BME280;31493;49.058;12.190;2023-12-20T04:24:25;95913.38;;;2.39;100.00
23677;BME280;31493;49.058;12.190;2023-12-20T04:26:52;95917.59;;;2.40;100.00
23677;BME280;31493;49.058;12.190;2023-12-20T04:29:19;95912.28;;;2.45;100.00
23677;BME280;31493;49.058;12.190;2023-12-20T04:31:47;95917.59;;;2.40;100.00
23677;BME280;31493;49.058;12.190;2023-12-20T04:34:17;95922.81;;;2.37;100.00
23677;BME280;31493;49.058;12.190;2023-12-20T04:36:45;95917.53;;;2.42;100.00
23677;BME280;31493;49.058;12.190;2023-12-20T04:39:13;95916.91;;;2.57;100.00
23677;BME280;31493;49.058;12.190;2023-12-20T04:41:41;95916.19;;;2.33;100.00
23677;BME280;31493;49.058;12.190;2023-12-20T04:44:08;95927.56;;;2.46;100.00
23677;BME280;31493;49.058;12.190;2023-12-20T04:46:35;95920.81;;;2.45;100.00
23677;BME280;31493;49.058;12.190;2023-12-20T04:49:02;95916.38;;;2.49;100.00
23677;BME280;31493;49.058;12.190;2023-12-20T04:51:29;95926.69;;;2.47;100.00
23677;BME280;31493;49.058;12.190;2023-12-20T04:53:56;95912.41;;;2.42;100.00
23677;BME280;31493;49.058;12.190;2023-12-20T04:56:24;95913.56;;;2.35;100.00
23677;BME280;31493;49.058;12.190;2023-12-20T04:58:51;95917.66;;;2.39;100.00
23677;BME280;31493;49.058;12.190;2023-12-20T05:01:18;95910.25;;;2.33;100.00
23677;BME280;31493;49.058;12.190;2023-12-20T05:03:46;95907.72;;;2.31;100.00
23677;BME280;31493;49.058;12.190;2023-12-20T05:06:13;95906.22;;;2.27;100.00
23677;BME280;31493;49.058;12.190;2023-12-20T05:08:40;95912.03;;;2.31;100.00
23677;BME280;31493;49.058;12.190;2023-12-20T05:11:07;95918.56;;;2.38;100.00
23677;BME280;31493;49.058;12.190;2023-12-20T05:13:36;95919.00;;;2.47;100.00
23677;BME280;31493;49.058;12.190;2023-12-20T05:16:04;95911.13;;;2.52;100.00
23677;BME280;31493;49.058;12.190;2023-12-20T05:18:31;95910.22;;;2.53;100.00
23677;BME280;31493;49.058;12.190;2023-12-20T05:20:58;95911.06;;;2.33;100.00
23677;BME280;31493;49.058;12.190;2023-12-20T05:23:25;95922.44;;;2.67;100.00
23677;BME280;31493;49.058;12.190;2023-12-20T05:25:52;95931.09;;;2.44;100.00
23677;BME280;31493;49.058;12.190;2023-12-20T05:28:19;95923.78;;;2.55;100.00
23677;BME280;31493;49.058;12.190;2023-12-20T05:30:47;95925.66;;;2.52;100.00
23677;BME280;31493;49.058;12.190;2023-12-20T05:33:14;95936.75;;;2.32;100.00
23677;BME280;31493;49.058;12.190;2023-12-20T05:35:41;95932.28;;;2.56;100.00
23677;BME280;31493;49.058;12.190;2023-12-20T05:38:08;95944.53;;;2.49;100.00
23677;BME280;31493;49.058;12.190;2023-12-20T05:40:35;95948.16;;;2.43;100.00
23677;BME280;31493;49.058;12.190;2023-12-20T05:43:03;95939.28;;;2.52;100.00
23677;BME280;31493;49.058;12.190;2023-12-20T05:45:30;95945.69;;;2.62;100.00
23677;BME280;31493;49.058;12.190;2023-12-20T05:47:58;95941.97;;;2.49;100.00
23677;BME280;31493;49.058;12.190;2023-12-20T05:50:25;95954.75;;;2.49;100.00
23677;BME280;31493;49.058;12.190;2023-12-20T05:52:52;95948.78;;;2.50;100.00
23677;BME280;31493;49.058;12.190;2023-12-20T05:55:19;95961.69;;;2.47;100.00
23677;BME280;31493;49.058;12.190;2023-12-20T05:57:46;95966.94;;;2.44;100.00
23677;BME280;31493;49.058;12.190;2023-12-20T06:00:14;95965.72;;;2.53;100.00
23677;BME280;31493;49.058;12.190;2023-12-20T06:02:43;95970.75;;;2.54;100.00
23677;BME280;31493;49.058;12.190;2023-12-20T06:05:12;95971.59;;;2.55;100.00
23677;BME280;31493;49.058;12.190;2023-12-20T06:07:39;95985.53;;;2.68;100.00
23677;BME280;31493;49.058;12.190;2023-12-20T06:10:07;95982.28;;;2.44;100.00
23677;BME280;31493;49.058;12.190;2023-12-20T06:12:34;95980.50;;;2.46;100.00
23677;BME280;31493;49.058;12.190;2023-12-20T06:15:02;95991.81;;;2.40;100.00
23677;BME280;31493;49.058;12.190;2023-12-20T06:17:29;95984.47;;;2.53;100.00
23677;BME280;31493;49.058;12.190;2023-12-20T06:19:57;95992.56;;;2.42;100.00
23677;BME280;31493;49.058;12.190;2023-12-20T06:22:25;95996.78;;;2.43;100.00
23677;BME280;31493;49.058;12.190;2023-12-20T06:24:52;95994.25;;;2.64;100.00
23677;BME280;31493;49.058;12.190;2023-12-20T06:27:19;95995.78;;;2.47;100.00
23677;BME280;31493;49.058;12.190;2023-12-20T06:29:46;95998.72;;;2.59;100.00
23677;BME280;31493;49.058;12.190;2023-12-20T06:32:13;95994.13;;;2.67;100.00
23677;BME280;31493;49.058;12.190;2023-12-20T06:34:40;95990.66;;;2.47;100.00
23677;BME280;31493;49.058;12.190;2023-12-20T06:37:07;96003.38;;;2.49;100.00
23677;BME280;31493;49.058;12.190;2023-12-20T06:39:36;96009.97;;;2.55;100.00
23677;BME280;31493;49.058;12.190;2023-12-20T06:42:03;96000.22;;;2.44;100.00
23677;BME280;31493;49.058;12.190;2023-12-20T06:44:30;95997.75;;;2.61;100.00
23677;BME280;31493;49.058;12.190;2023-12-20T06:46:57;96007.56;;;2.52;100.00
23677;BME280;31493;49.058;12.190;2023-12-20T06:49:24;96000.81;;;2.49;100.00
23677;BME280;31493;49.058;12.190;2023-12-20T06:51:51;95992.97;;;2.54;100.00
23677;BME280;31493;49.058;12.190;2023-12-20T06:54:18;96006.16;;;2.44;100.00
23677;BME280;31493;49.058;12.190;2023-12-20T06:56:47;96007.38;;;2.56;100.00
23677;BME280;31493;49.058;12.190;2023-12-20T06:59:14;96025.34;;;2.55;100.00
23677;BME280;31493;49.058;12.190;2023-12-20T07:01:41;96020.47;;;2.48;100.00
23677;BME280;31493;49.058;12.190;2023-12-20T07:04:08;96026.06;;;2.58;100.00
23677;BME280;31493;49.058;12.190;2023-12-20T07:06:36;96025.59;;;2.48;100.00
23677;BME280;31493;49.058;12.190;2023-12-20T07:09:03;96040.91;;;2.50;100.00
23677;BME280;31493;49.058;12.190;2023-12-20T07:11:30;96044.09;;;2.55;100.00
23677;BME280;31493;49.058;12.190;2023-12-20T07:13:59;96047.63;;;2.53;100.00
23677;BME280;31493;49.058;12.190;2023-12-20T07:16:27;96048.34;;;2.56;100.00
23677;BME280;31493;49.058;12.190;2023-12-20T07:18:54;96047.88;;;2.67;100.00
23677;BME280;31493;49.058;12.190;2023-12-20T07:21:22;96043.66;;;2.66;100.00
23677;BME280;31493;49.058;12.190;2023-12-20T07:23:49;96044.91;;;2.56;100.00
23677;BME280;31493;49.058;12.190;2023-12-20T07:26:16;96056.31;;;2.48;100.00
23677;BME280;31493;49.058;12.190;2023-12-20T07:28:44;96054.63;;;2.69;100.00
23677;BME280;31493;49.058;12.190;2023-12-20T07:31:12;96051.47;;;2.63;100.00
23677;BME280;31493;49.058;12.190;2023-12-20T07:33:42;96060.69;;;2.67;100.00
23677;BME280;31493;49.058;12.190;2023-12-20T07:36:09;96064.31;;;2.61;100.00
23677;BME280;31493;49.058;12.190;2023-12-20T07:38:35;96054.38;;;2.75;100.00
23677;BME280;31493;49.058;12.190;2023-12-20T07:41:03;96072.84;;;2.62;100.00
23677;BME280;31493;49.058;12.190;2023-12-20T07:43:30;96083.16;;;2.60;100.00
23677;BME280;31493;49.058;12.190;2023-12-20T07:46:01;96076.00;;;2.68;100.00
23677;BME280;31493;49.058;12.190;2023-12-20T07:48:31;96083.94;;;2.40;100.00
23677;BME280;31493;49.058;12.190;2023-12-20T07:50:58;96097.84;;;2.55;100.00
23677;BME280;31493;49.058;12.190;2023-12-20T07:53:25;96089.47;;;2.52;100.00
23677;BME280;31493;49.058;12.190;2023-12-20T07:55:53;96090.72;;;2.63;100.00
23677;BME280;31493;49.058;12.190;2023-12-20T07:58:20;96096.50;;;2.46;100.00
23677;BME280;31493;49.058;12.190;2023-12-20T08:00:47;96091.72;;;2.59;100.00
23677;BME280;31493;49.058;12.190;2023-12-20T08:03:14;96101.84;;;2.62;100.00
23677;BME280;31493;49.058;12.190;2023-12-20T08:05:43;96103.22;;;2.49;100.00
23677;BME280;31493;49.058;12.190;2023-12-20T08:08:10;96102.44;;;2.47;100.00
23677;BME280;31493;49.058;12.190;2023-12-20T08:10:37;96101.97;;;2.37;100.00
23677;BME280;31493;49.058;12.190;2023-12-20T08:13:04;96108.47;;;2.46;100.00
23677;BME280;31493;49.058;12.190;2023-12-20T08:15:31;96105.25;;;2.41;100.00
23677;BME280;31493;49.058;12.190;2023-12-20T08:17:58;96103.50;;;2.41;100.00
23677;BME280;31493;49.058;12.190;2023-12-20T08:20:25;96112.75;;;2.45;100.00
23677;BME280;31493;49.058;12.190;2023-12-20T08:22:53;96117.88;;;2.45;100.00
23677;BME280;31493;49.058;12.190;2023-12-20T08:25:20;96123.41;;;2.35;100.00
23677;BME280;31493;49.058;12.190;2023-12-20T08:27:47;96121.56;;;2.38;100.00
23677;BME280;31493;49.058;12.190;2023-12-20T08:30:14;96107.50;;;2.48;100.00
23677;BME280;31493;49.058;12.190;2023-12-20T08:32:42;96122.63;;;2.55;100.00
23677;BME280;31493;49.058;12.190;2023-12-20T08:35:09;96128.03;;;2.47;100.00
23677;BME280;31493;49.058;12.190;2023-12-20T08:37:36;96125.84;;;2.38;100.00
23677;BME280;31493;49.058;12.190;2023-12-20T08:40:06;96128.19;;;2.44;100.00
23677;BME280;31493;49.058;12.190;2023-12-20T08:42:33;96126.38;;;2.46;100.00
23677;BME280;31493;49.058;12.190;2023-12-20T08:45:00;96125.41;;;2.48;100.00
23677;BME280;31493;49.058;12.190;2023-12-20T08:47:29;96130.50;;;2.50;100.00
23677;BME280;31493;49.058;12.190;2023-12-20T08:49:57;96120.78;;;2.58;100.00
23677;BME280;31493;49.058;12.190;2023-12-20T08:52:25;96125.06;;;2.58;100.00
23677;BME280;31493;49.058;12.190;2023-12-20T08:54:53;96121.91;;;2.51;100.00
23677;BME280;31493;49.058;12.190;2023-12-20T08:57:22;96117.63;;;2.52;100.00
23677;BME280;31493;49.058;12.190;2023-12-20T08:59:50;96119.22;;;2.54;100.00
23677;BME280;31493;49.058;12.190;2023-12-20T09:02:17;96119.06;;;2.59;100.00
23677;BME280;31493;49.058;12.190;2023-12-20T09:04:44;96117.00;;;2.67;100.00
23677;BME280;31493;49.058;12.190;2023-12-20T09:07:21;96120.28;;;2.70;100.00
23677;BME280;31493;49.058;12.190;2023-12-20T09:09:48;96116.72;;;2.74;100.00
23677;BME280;31493;49.058;12.190;2023-12-20T09:12:15;96113.75;;;2.63;100.00
23677;BME280;31493;49.058;12.190;2023-12-20T09:14:43;96112.47;;;2.73;100.00
23677;BME280;31493;49.058;12.190;2023-12-20T09:17:10;96101.72;;;2.65;100.00
23677;BME280;31493;49.058;12.190;2023-12-20T09:19:37;96110.22;;;2.66;100.00
23677;BME280;31493;49.058;12.190;2023-12-20T09:22:04;96118.66;;;2.68;100.00
23677;BME280;31493;49.058;12.190;2023-12-20T09:24:31;96123.63;;;2.72;100.00
23677;BME280;31493;49.058;12.190;2023-12-20T09:26:58;96114.28;;;2.71;100.00
23677;BME280;31493;49.058;12.190;2023-12-20T09:29:25;96121.53;;;2.82;100.00
23677;BME280;31493;49.058;12.190;2023-12-20T09:31:54;96120.06;;;2.76;100.00
23677;BME280;31493;49.058;12.190;2023-12-20T09:34:21;96135.69;;;2.91;100.00
23677;BME280;31493;49.058;12.190;2023-12-20T09:36:48;96128.50;;;2.78;100.00
23677;BME280;31493;49.058;12.190;2023-12-20T09:39:17;96127.56;;;2.81;100.00
23677;BME280;31493;49.058;12.190;2023-12-20T09:41:45;96124.16;;;2.81;100.00
23677;BME280;31493;49.058;12.190;2023-12-20T09:44:16;96138.50;;;2.85;100.00
23677;BME280;31493;49.058;12.190;2023-12-20T09:46:45;96112.56;;;2.92;100.00
23677;BME280;31493;49.058;12.190;2023-12-20T09:49:18;96117.81;;;2.89;100.00
23677;BME280;31493;49.058;12.190;2023-12-20T09:51:46;96116.59;;;2.98;100.00
23677;BME280;31493;49.058;12.190;2023-12-20T09:54:14;96129.06;;;2.85;100.00
23677;BME280;31493;49.058;12.190;2023-12-20T09:56:41;96114.53;;;2.86;100.00
23677;BME280;31493;49.058;12.190;2023-12-20T09:59:08;96105.25;;;2.83;100.00
23677;BME280;31493;49.058;12.190;2023-12-20T10:01:35;96095.41;;;2.94;100.00
23677;BME280;31493;49.058;12.190;2023-12-20T10:04:05;96081.31;;;3.04;100.00
23677;BME280;31493;49.058;12.190;2023-12-20T10:06:36;96106.13;;;3.24;100.00
23677;BME280;31493;49.058;12.190;2023-12-20T10:09:03;96102.47;;;3.10;100.00
23677;BME280;31493;49.058;12.190;2023-12-20T10:11:31;96095.22;;;3.19;100.00
23677;BME280;31493;49.058;12.190;2023-12-20T10:13:59;96109.56;;;3.23;100.00
23677;BME280;31493;49.058;12.190;2023-12-20T10:16:26;96106.53;;;3.34;100.00
23677;BME280;31493;49.058;12.190;2023-12-20T10:18:54;96112.84;;;3.27;100.00
23677;BME280;31493;49.058;12.190;2023-12-20T10:21:21;96108.91;;;3.39;100.00
23677;BME280;31493;49.058;12.190;2023-12-20T10:23:50;96100.25;;;3.41;100.00
23677;BME280;31493;49.058;12.190;2023-12-20T10:26:20;96112.44;;;3.56;100.00
23677;BME280;31493;49.058;12.190;2023-12-20T10:28:50;96105.22;;;3.65;100.00
23677;BME280;31493;49.058;12.190;2023-12-20T10:31:27;96110.97;;;3.70;100.00
23677;BME280;31493;49.058;12.190;2023-12-20T10:33:56;96100.09;;;3.65;100.00
23677;BME280;31493;49.058;12.190;2023-12-20T10:36:23;96100.66;;;3.71;100.00
23677;BME280;31493;49.058;12.190;2023-12-20T10:38:54;96109.69;;;3.80;100.00
23677;BME280;31493;49.058;12.190;2023-12-20T10:41:25;96105.09;;;3.68;100.00
23677;BME280;31493;49.058;12.190;2023-12-20T10:43:55;96088.06;;;3.46;100.00
23677;BME280;31493;49.058;12.190;2023-12-20T10:46:23;96099.25;;;3.64;100.00
23677;BME280;31493;49.058;12.190;2023-12-20T10:48:53;96092.25;;;3.49;100.00
23677;BME280;31493;49.058;12.190;2023-12-20T10:51:21;96097.78;;;3.58;100.00
23677;BME280;31493;49.058;12.190;2023-12-20T10:53:48;96082.53;;;3.37;100.00
23677;BME280;31493;49.058;12.190;2023-12-20T10:56:18;96086.59;;;3.41;100.00
23677;BME280;31493;49.058;12.190;2023-12-20T10:58:45;96073.88;;;3.39;100.00
23677;BME280;31493;49.058;12.190;2023-12-20T11:01:13;96082.25;;;3.43;100.00
23677;BME280;31493;49.058;12.190;2023-12-20T11:03:44;96084.56;;;3.49;100.00
23677;BME280;31493;49.058;12.190;2023-12-20T11:06:22;96057.41;;;3.64;100.00
23677;BME280;31493;49.058;12.190;2023-12-20T11:08:55;96065.72;;;3.88;100.00
23677;BME280;31493;49.058;12.190;2023-12-20T11:11:38;96059.69;;;4.07;100.00
23677;BME280;31493;49.058;12.190;2023-12-20T11:14:15;96058.63;;;4.30;100.00
23677;BME280;31493;49.058;12.190;2023-12-20T11:16:45;96054.75;;;4.22;100.00
23677;BME280;31493;49.058;12.190;2023-12-20T11:19:12;96058.31;;;4.36;100.00
23677;BME280;31493;49.058;12.190;2023-12-20T11:21:40;96051.69;;;4.13;100.00
23677;BME280;31493;49.058;12.190;2023-12-20T11:24:07;96052.41;;;4.17;100.00
23677;BME280;31493;49.058;12.190;2023-12-20T11:26:36;96045.44;;;4.19;100.00
23677;BME280;31493;49.058;12.190;2023-12-20T11:29:31;96047.75;;;4.43;100.00
23677;BME280;31493;49.058;12.190;2023-12-20T11:31:59;96048.44;;;4.29;100.00
23677;BME280;31493;49.058;12.190;2023-12-20T11:34:27;96051.31;;;4.21;100.00
23677;BME280;31493;49.058;12.190;2023-12-20T11:36:58;96033.84;;;4.29;100.00
23677;BME280;31493;49.058;12.190;2023-12-20T11:39:26;96042.72;;;4.05;100.00
23677;BME280;31493;49.058;12.190;2023-12-20T11:41:56;96041.84;;;4.23;100.00
23677;BME280;31493;49.058;12.190;2023-12-20T11:44:25;96030.53;;;4.45;100.00
23677;BME280;31493;49.058;12.190;2023-12-20T11:46:54;96023.00;;;4.76;100.00
23677;BME280;31493;49.058;12.190;2023-12-20T11:49:25;96029.16;;;4.91;100.00
23677;BME280;31493;49.058;12.190;2023-12-20T11:51:52;96038.06;;;4.84;100.00
23677;BME280;31493;49.058;12.190;2023-12-20T11:54:19;96019.00;;;4.88;100.00
23677;BME280;31493;49.058;12.190;2023-12-20T11:56:46;96009.44;;;5.25;100.00
23677;BME280;31493;49.058;12.190;2023-12-20T11:59:15;96013.34;;;4.99;100.00
23677;BME280;31493;49.058;12.190;2023-12-20T12:01:48;96011.75;;;4.79;100.00
23677;BME280;31493;49.058;12.190;2023-12-20T12:04:15;96012.50;;;4.81;100.00
23677;BME280;31493;49.058;12.190;2023-12-20T12:06:43;96019.75;;;4.73;100.00
23677;BME280;31493;49.058;12.190;2023-12-20T12:09:10;96012.66;;;4.60;100.00
23677;BME280;31493;49.058;12.190;2023-12-20T12:11:37;96008.25;;;4.45;100.00
23677;BME280;31493;49.058;12.190;2023-12-20T12:14:04;96003.66;;;4.34;100.00
23677;BME280;31493;49.058;12.190;2023-12-20T12:16:33;96000.72;;;4.42;100.00
23677;BME280;31493;49.058;12.190;2023-12-20T12:19:00;96004.41;;;4.36;100.00
23677;BME280;31493;49.058;12.190;2023-12-20T12:21:27;96004.19;;;4.24;100.00
23677;BME280;31493;49.058;12.190;2023-12-20T12:24:06;96010.78;;;4.10;100.00
23677;BME280;31493;49.058;12.190;2023-12-20T12:26:33;96011.38;;;3.98;100.00
23677;BME280;31493;49.058;12.190;2023-12-20T12:29:00;96009.13;;;4.09;100.00
23677;BME280;31493;49.058;12.190;2023-12-20T12:31:30;96015.69;;;4.15;100.00
23677;BME280;31493;49.058;12.190;2023-12-20T12:33:59;96025.97;;;3.96;100.00
23677;BME280;31493;49.058;12.190;2023-12-20T12:36:26;96030.91;;;4.01;100.00
23677;BME280;31493;49.058;12.190;2023-12-20T12:38:56;96019.41;;;3.72;100.00
23677;BME280;31493;49.058;12.190;2023-12-20T12:41:23;96033.63;;;3.60;100.00
23677;BME280;31493;49.058;12.190;2023-12-20T12:43:50;96033.16;;;3.71;100.00
23677;BME280;31493;49.058;12.190;2023-12-20T12:46:17;96031.84;;;3.62;100.00
23677;BME280;31493;49.058;12.190;2023-12-20T12:48:44;96017.22;;;3.64;100.00
23677;BME280;31493;49.058;12.190;2023-12-20T12:51:13;96019.56;;;3.69;100.00
23677;BME280;31493;49.058;12.190;2023-12-20T12:53:40;96014.78;;;3.80;100.00